Time;durP1;ratioP1;P1;durP2;ratioP2;P2;SDS_P1;SDS_P2;PMS_P1;PMS_P2;Temp;Humidity;BMP_temperature;BMP_pressure;BME280_temperature;BME280_humidity;BME280_pressure;Samples;Min_cycle;Max_cycle;Signal;HPM_P1;HPM_P2
2021/08/24 00:00:24;;;;;;;25.53;23.43;;;14.20;99.90;;;;;;5048938;28;20464;-69
2021/08/24 00:02:52;;;;;;;23.80;21.90;;;14.20;99.90;;;;;;5054393;28;20459;-69
2021/08/24 00:05:24;;;;;;;25.50;23.10;;;14.20;99.90;;;;;;5056074;28;20463;-69
2021/08/24 00:07:52;;;;;;;25.23;23.33;;;14.30;99.90;;;;;;5050184;28;20836;-69
2021/08/24 00:10:20;;;;;;;24.77;22.87;;;14.20;99.90;;;;;;5055718;28;20489;-72
2021/08/24 00:12:47;;;;;;;24.20;22.57;;;14.20;99.90;;;;;;5046629;28;20459;-70
2021/08/24 00:15:16;;;;;;;24.60;22.90;;;14.20;99.90;;;;;;5045923;28;20462;-69
2021/08/24 00:17:43;;;;;;;24.10;22.33;;;14.10;99.90;;;;;;5053773;28;20474;-69
2021/08/24 00:20:11;;;;;;;23.70;21.93;;;14.10;99.90;;;;;;5051892;28;20456;-69
2021/08/24 00:22:39;;;;;;;24.73;22.87;;;14.10;99.90;;;;;;5047863;28;20451;-69
2021/08/24 00:25:07;;;;;;;25.77;23.57;;;14.10;99.90;;;;;;5055439;28;20549;-69
2021/08/24 00:27:34;;;;;;;24.43;22.83;;;14.00;99.90;;;;;;5066191;28;20491;-69
2021/08/24 00:30:01;;;;;;;25.17;23.23;;;14.00;99.90;;;;;;5057892;28;20470;-70
2021/08/24 00:32:30;;;;;;;24.30;22.50;;;14.00;99.90;;;;;;5060278;28;20943;-71
2021/08/24 00:34:56;;;;;;;22.43;20.83;;;14.00;99.90;;;;;;5060507;28;20455;-70
2021/08/24 00:37:24;;;;;;;24.90;22.93;;;14.00;99.90;;;;;;5057141;28;20460;-69
2021/08/24 00:39:51;;;;;;;24.13;22.40;;;14.00;99.90;;;;;;5051817;28;20567;-70
2021/08/24 00:42:18;;;;;;;23.33;21.83;;;14.00;99.90;;;;;;5050143;28;21187;-69
2021/08/24 00:44:46;;;;;;;24.07;22.40;;;14.00;99.90;;;;;;5056676;28;20817;-70
2021/08/24 00:47:15;;;;;;;23.57;21.77;;;14.00;99.90;;;;;;5052445;28;20506;-70
2021/08/24 00:49:44;;;;;;;23.90;22.17;;;14.10;99.90;;;;;;5054727;28;20459;-69
2021/08/24 00:52:14;;;;;;;24.60;22.63;;;14.10;99.90;;;;;;5055294;28;20471;-72
2021/08/24 00:54:42;;;;;;;24.10;22.30;;;14.10;99.90;;;;;;5050052;28;20463;-69
2021/08/24 00:57:13;;;;;;;23.47;21.87;;;14.10;99.90;;;;;;5055182;28;20974;-69
2021/08/24 00:59:40;;;;;;;24.03;22.23;;;14.10;99.90;;;;;;5057114;28;20455;-68
2021/08/24 01:02:07;;;;;;;23.97;22.27;;;14.10;99.90;;;;;;5057482;28;20464;-69
2021/08/24 01:04:35;;;;;;;25.10;23.10;;;14.00;99.90;;;;;;5052814;28;20472;-69
2021/08/24 01:07:07;;;;;;;24.07;22.07;;;14.00;99.90;;;;;;5056843;28;20483;-69
2021/08/24 01:09:46;;;;;;;25.10;23.40;;;14.00;99.90;;;;;;5059511;28;20478;-71
2021/08/24 01:12:23;;;;;;;23.37;21.57;;;14.00;99.90;;;;;;5057218;28;20467;-69
2021/08/24 01:15:02;;;;;;;23.43;21.63;;;13.90;99.90;;;;;;5055031;28;21344;-70
2021/08/24 01:17:35;;;;;;;25.13;23.10;;;13.90;99.90;;;;;;5060097;28;20487;-71
2021/08/24 01:20:32;;;;;;;24.90;22.80;;;13.90;99.90;;;;;;5054600;28;20760;-70
2021/08/24 01:23:32;;;;;;;25.23;23.07;;;13.90;99.90;;;;;;5053013;28;20456;-69
2021/08/24 01:26:06;;;;;;;23.40;21.70;;;13.90;99.90;;;;;;5053785;28;20486;-70
2021/08/24 01:28:50;;;;;;;23.73;21.97;;;13.90;99.90;;;;;;5055552;28;20488;-69
2021/08/24 01:31:54;;;;;;;22.03;20.53;;;13.90;99.90;;;;;;5050810;28;20463;-69
2021/08/24 01:34:36;;;;;;;22.70;20.97;;;13.90;99.90;;;;;;5054900;28;20544;-71
2021/08/24 01:37:10;;;;;;;22.30;20.83;;;14.00;99.90;;;;;;5057655;28;20448;-70
2021/08/24 01:39:42;;;;;;;23.03;21.33;;;14.00;99.90;;;;;;5057271;28;20535;-69
2021/08/24 01:42:15;;;;;;;22.17;20.60;;;14.00;99.90;;;;;;5049901;28;20456;-69
2021/08/24 01:44:48;;;;;;;21.13;19.60;;;14.10;99.90;;;;;;5053348;28;20456;-70
2021/08/24 01:47:24;;;;;;;21.77;19.87;;;14.10;99.90;;;;;;5054763;28;21366;-69
2021/08/24 01:49:57;;;;;;;21.50;20.10;;;14.10;99.90;;;;;;5052291;28;21013;-69
2021/08/24 01:52:32;;;;;;;21.00;19.40;;;14.10;99.90;;;;;;5056121;28;20494;-71
2021/08/24 01:55:05;;;;;;;20.70;19.13;;;14.10;99.90;;;;;;5054953;28;20459;-70
2021/08/24 01:57:37;;;;;;;20.33;18.80;;;14.10;99.90;;;;;;5057934;28;20476;-72
2021/08/24 02:00:07;;;;;;;20.40;19.00;;;14.20;99.90;;;;;;5057649;28;20451;-70
2021/08/24 02:02:40;;;;;;;21.20;19.33;;;14.20;99.90;;;;;;5056747;28;20463;-69
2021/08/24 02:05:11;;;;;;;20.63;19.13;;;14.20;99.90;;;;;;5050634;28;21073;-72
2021/08/24 02:07:40;;;;;;;20.60;19.20;;;14.30;99.90;;;;;;5053904;28;20669;-72
2021/08/24 02:10:12;;;;;;;20.73;19.03;;;14.30;99.90;;;;;;5053041;28;20470;-70
2021/08/24 02:12:42;;;;;;;20.30;18.90;;;14.40;99.90;;;;;;5063033;28;20456;-69
2021/08/24 02:15:10;;;;;;;19.20;17.90;;;14.40;99.90;;;;;;5057400;28;20471;-69
2021/08/24 02:17:41;;;;;;;19.80;17.90;;;14.40;99.90;;;;;;5056347;28;20480;-70
2021/08/24 02:20:16;;;;;;;19.50;18.23;;;14.40;99.90;;;;;;5054265;28;20772;-71
2021/08/24 02:22:47;;;;;;;19.60;18.20;;;14.40;99.90;;;;;;5054504;28;20806;-72
2021/08/24 02:25:18;;;;;;;20.63;18.60;;;14.40;99.90;;;;;;5048421;28;21115;-70
2021/08/24 02:27:54;;;;;;;21.17;19.57;;;14.40;99.90;;;;;;5051661;28;20486;-72
2021/08/24 02:30:22;;;;;;;19.97;18.67;;;14.40;99.90;;;;;;5049942;28;20469;-69
2021/08/24 02:32:50;;;;;;;19.87;18.37;;;14.40;99.90;;;;;;5058372;28;20452;-72
2021/08/24 02:35:24;;;;;;;21.90;19.57;;;14.40;99.90;;;;;;5057509;28;20554;-69
2021/08/24 02:37:57;;;;;;;21.10;19.50;;;14.30;99.90;;;;;;5056184;28;20532;-71
2021/08/24 02:40:34;;;;;;;20.67;19.00;;;14.20;99.90;;;;;;5054018;28;20467;-71
2021/08/24 02:43:11;;;;;;;20.90;19.00;;;14.20;99.90;;;;;;5051738;28;20459;-71
2021/08/24 02:45:42;;;;;;;20.10;18.80;;;14.10;99.90;;;;;;5052108;28;20452;-71
2021/08/24 02:48:13;;;;;;;21.87;20.17;;;14.10;99.90;;;;;;5056322;28;20489;-70
2021/08/24 02:50:41;;;;;;;22.03;20.30;;;14.10;99.90;;;;;;5052416;28;20459;-70
2021/08/24 02:53:11;;;;;;;22.30;20.60;;;14.00;99.90;;;;;;5053737;28;20455;-70
2021/08/24 02:55:38;;;;;;;21.00;19.17;;;14.00;99.90;;;;;;5056224;28;20964;-69
2021/08/24 02:58:04;;;;;;;21.90;20.20;;;14.00;99.90;;;;;;5052835;28;20483;-69
2021/08/24 03:00:31;;;;;;;21.00;19.40;;;13.80;99.90;;;;;;5051406;28;20459;-72
2021/08/24 03:02:58;;;;;;;22.30;20.70;;;13.80;99.90;;;;;;5058439;28;20818;-70
2021/08/24 03:05:25;;;;;;;21.20;19.03;;;13.80;99.90;;;;;;5056925;28;20455;-69
2021/08/24 03:07:52;;;;;;;22.33;20.53;;;13.80;99.90;;;;;;5051574;28;20574;-69
2021/08/24 03:10:24;;;;;;;20.93;19.30;;;13.80;99.90;;;;;;5056795;28;20487;-69
2021/08/24 03:13:03;;;;;;;21.23;19.67;;;13.90;99.90;;;;;;5052951;28;20472;-70
2021/08/24 03:15:36;;;;;;;22.10;20.40;;;13.90;99.90;;;;;;5055684;28;20450;-70
2021/08/24 03:18:07;;;;;;;21.53;20.00;;;13.90;99.90;;;;;;5052061;28;20459;-69
2021/08/24 03:20:41;;;;;;;21.10;19.40;;;13.80;99.90;;;;;;5055059;28;20474;-69
2021/08/24 03:23:10;;;;;;;21.83;20.23;;;13.80;99.90;;;;;;5056724;28;20451;-70
2021/08/24 03:25:41;;;;;;;22.33;20.60;;;13.80;99.90;;;;;;5055172;28;20485;-69
2021/08/24 03:28:13;;;;;;;21.33;19.73;;;13.70;99.90;;;;;;5051364;28;20479;-71
2021/08/24 03:30:40;;;;;;;21.23;19.63;;;13.70;99.90;;;;;;5048870;28;20512;-70
2021/08/24 03:33:07;;;;;;;22.43;20.73;;;13.60;99.90;;;;;;5048275;28;20510;-70
2021/08/24 03:35:34;;;;;;;24.07;22.07;;;13.60;99.90;;;;;;5054753;28;20455;-70
2021/08/24 03:38:01;;;;;;;22.50;21.00;;;13.50;99.90;;;;;;5055338;28;20796;-69
2021/08/24 03:40:28;;;;;;;23.07;21.37;;;13.40;99.90;;;;;;5050097;28;21023;-70
2021/08/24 03:42:58;;;;;;;23.60;21.50;;;13.40;99.90;;;;;;5055630;28;20464;-70
2021/08/24 03:45:25;;;;;;;22.40;20.60;;;13.40;99.90;;;;;;5051383;28;20463;-70
2021/08/24 03:47:52;;;;;;;22.47;20.60;;;13.30;99.90;;;;;;5056905;28;20482;-71
2021/08/24 03:50:20;;;;;;;23.47;21.57;;;13.40;99.90;;;;;;5050093;28;20814;-70
2021/08/24 03:52:47;;;;;;;23.43;21.23;;;13.30;99.90;;;;;;5050726;28;20468;-72
2021/08/24 03:55:14;;;;;;;22.20;20.53;;;13.30;99.90;;;;;;5053971;28;20454;-70
2021/08/24 03:57:41;;;;;;;21.80;20.30;;;13.30;99.90;;;;;;5052014;28;20480;-69
2021/08/24 04:00:10;;;;;;;23.50;20.87;;;13.20;99.90;;;;;;5055471;28;20458;-70
2021/08/24 04:02:37;;;;;;;22.07;20.33;;;13.20;99.90;;;;;;5056661;28;20462;-71
2021/08/24 04:05:04;;;;;;;23.23;20.90;;;13.10;99.90;;;;;;5056780;28;20462;-69
2021/08/24 04:07:32;;;;;;;22.93;21.17;;;13.10;99.90;;;;;;5055621;28;20870;-69
2021/08/24 04:10:01;;;;;;;23.50;21.57;;;13.00;99.90;;;;;;5052647;28;20895;-69
2021/08/24 04:12:28;;;;;;;24.87;22.63;;;13.00;99.90;;;;;;5050790;28;20852;-70
2021/08/24 04:14:55;;;;;;;24.30;22.20;;;12.90;99.90;;;;;;5055831;28;20846;-69
2021/08/24 04:17:24;;;;;;;23.00;21.10;;;12.90;99.90;;;;;;5059010;28;20973;-69
2021/08/24 04:19:51;;;;;;;23.90;22.00;;;12.90;99.90;;;;;;5056239;28;20467;-70
2021/08/24 04:22:21;;;;;;;24.13;22.20;;;13.00;99.90;;;;;;5055662;28;20462;-69
2021/08/24 04:24:48;;;;;;;24.87;22.40;;;13.00;99.90;;;;;;5058879;28;20461;-69
2021/08/24 04:27:14;;;;;;;23.97;21.97;;;12.90;99.90;;;;;;5058488;28;20537;-69
2021/08/24 04:29:41;;;;;;;24.93;22.80;;;12.90;99.90;;;;;;5055634;28;20820;-69
2021/08/24 04:32:09;;;;;;;23.73;21.83;;;12.90;99.90;;;;;;5061490;28;20460;-70
2021/08/24 04:34:37;;;;;;;22.93;21.10;;;12.90;99.90;;;;;;5059440;28;20490;-69
2021/08/24 04:37:04;;;;;;;23.97;22.10;;;12.80;99.90;;;;;;5050512;28;20452;-70
2021/08/24 04:39:31;;;;;;;25.10;22.73;;;12.80;99.90;;;;;;5061022;28;20808;-70
2021/08/24 04:41:59;;;;;;;25.10;22.70;;;12.80;99.90;;;;;;5050653;28;20460;-70
2021/08/24 04:44:25;;;;;;;23.23;21.33;;;12.80;99.90;;;;;;5055209;28;20879;-69
2021/08/24 04:46:52;;;;;;;23.73;21.83;;;12.70;99.90;;;;;;5055626;28;21130;-72
2021/08/24 04:49:21;;;;;;;23.10;21.10;;;12.80;99.90;;;;;;5056882;28;20523;-70
2021/08/24 04:51:49;;;;;;;23.20;21.13;;;12.80;99.90;;;;;;5050620;28;20848;-71
2021/08/24 04:54:17;;;;;;;25.10;22.67;;;12.70;99.90;;;;;;5055586;28;20559;-69
2021/08/24 04:56:44;;;;;;;23.80;21.60;;;12.70;99.90;;;;;;5054156;28;20483;-69
2021/08/24 04:59:11;;;;;;;25.47;23.17;;;12.70;99.90;;;;;;5053072;28;20482;-69
2021/08/24 05:01:38;;;;;;;24.37;21.70;;;12.80;99.90;;;;;;5061560;28;20455;-69
2021/08/24 05:04:06;;;;;;;24.07;22.10;;;12.80;99.90;;;;;;5060390;28;20537;-70
2021/08/24 05:06:33;;;;;;;26.43;23.00;;;12.80;99.90;;;;;;5050020;28;20524;-70
2021/08/24 05:09:02;;;;;;;26.93;23.43;;;12.70;99.90;;;;;;5063640;28;20490;-69
2021/08/24 05:11:29;;;;;;;24.13;21.93;;;12.80;99.90;;;;;;5054718;28;21020;-69
2021/08/24 05:13:56;;;;;;;26.23;23.83;;;12.80;99.90;;;;;;5053297;28;21079;-69
2021/08/24 05:16:23;;;;;;;24.90;22.53;;;12.90;99.90;;;;;;5056646;28;20478;-70
2021/08/24 05:18:49;;;;;;;23.67;21.77;;;12.90;99.90;;;;;;5058288;28;20456;-70
2021/08/24 05:21:18;;;;;;;23.37;21.30;;;12.90;99.90;;;;;;5051414;28;20464;-69
2021/08/24 05:23:45;;;;;;;24.70;22.03;;;13.00;99.90;;;;;;5056667;28;20459;-69
2021/08/24 05:26:16;;;;;;;25.57;23.27;;;13.00;99.90;;;;;;5057900;28;20968;-69
2021/08/24 05:28:42;;;;;;;25.40;23.00;;;13.00;99.90;;;;;;5056755;28;20487;-69
2021/08/24 05:31:09;;;;;;;26.13;23.50;;;13.00;99.90;;;;;;5055047;28;20452;-69
2021/08/24 05:33:36;;;;;;;27.10;24.60;;;13.10;99.90;;;;;;5053101;28;20482;-69
2021/08/24 05:36:04;;;;;;;28.13;24.57;;;13.10;99.90;;;;;;5052133;28;20471;-69
2021/08/24 05:38:32;;;;;;;26.07;23.47;;;13.20;99.90;;;;;;5055160;28;20473;-71
2021/08/24 05:41:00;;;;;;;27.33;24.50;;;13.20;99.90;;;;;;5052768;28;20455;-72
2021/08/24 05:43:28;;;;;;;28.20;25.00;;;13.30;99.90;;;;;;5051894;28;20457;-70
2021/08/24 05:45:56;;;;;;;26.37;24.07;;;13.30;99.90;;;;;;5055647;28;20464;-71
2021/08/24 05:48:23;;;;;;;27.07;24.40;;;13.40;99.90;;;;;;5051499;28;20862;-69
2021/08/24 05:50:50;;;;;;;26.77;24.47;;;13.40;99.90;;;;;;5054347;28;20543;-69
2021/08/24 05:53:16;;;;;;;29.07;26.23;;;13.50;99.90;;;;;;5057334;28;20462;-70
2021/08/24 05:55:43;;;;;;;27.67;24.90;;;13.60;99.90;;;;;;5058807;28;20451;-71
2021/08/24 05:58:10;;;;;;;27.90;25.13;;;13.70;99.90;;;;;;5052271;28;20487;-69
2021/08/24 06:00:40;;;;;;;28.90;25.80;;;13.80;99.90;;;;;;5055342;28;20467;-70
2021/08/24 06:03:08;;;;;;;27.87;25.33;;;13.90;99.90;;;;;;5054806;28;20454;-71
2021/08/24 06:05:40;;;;;;;28.03;25.50;;;13.90;99.90;;;;;;5056728;28;20562;-69
2021/08/24 06:08:09;;;;;;;32.47;26.00;;;14.00;99.90;;;;;;5049208;28;21023;-72
2021/08/24 06:10:37;;;;;;;25.83;23.57;;;14.10;99.90;;;;;;5048060;28;20513;-72
2021/08/24 06:13:04;;;;;;;26.40;24.00;;;14.20;99.90;;;;;;5055280;28;20500;-69
2021/08/24 06:15:31;;;;;;;25.57;23.37;;;14.30;99.90;;;;;;5051277;28;20464;-70
2021/08/24 06:18:00;;;;;;;25.73;23.10;;;14.40;99.90;;;;;;5052325;28;20818;-70
2021/08/24 06:20:28;;;;;;;26.00;23.63;;;14.50;99.90;;;;;;5047925;28;20464;-70
2021/08/24 06:22:55;;;;;;;24.60;22.67;;;14.60;99.90;;;;;;5043561;28;20790;-70
2021/08/24 06:25:22;;;;;;;25.80;22.33;;;14.70;99.90;;;;;;5050048;28;20735;-69
2021/08/24 06:27:50;;;;;;;23.60;21.77;;;14.70;99.90;;;;;;5049480;28;20463;-69
2021/08/24 06:30:17;;;;;;;24.07;22.30;;;14.70;99.90;;;;;;5045766;28;20466;-70
2021/08/24 06:32:48;;;;;;;23.00;21.10;;;14.90;99.90;;;;;;5047254;28;20484;-69
2021/08/24 06:35:18;;;;;;;22.30;20.53;;;14.90;99.90;;;;;;5037421;28;20516;-69
2021/08/24 06:37:46;;;;;;;24.00;21.70;;;15.00;99.90;;;;;;5048760;28;20793;-69
2021/08/24 06:40:15;;;;;;;22.90;21.20;;;15.10;99.90;;;;;;5049980;28;20824;-72
2021/08/24 06:42:44;;;;;;;22.93;20.80;;;15.30;99.90;;;;;;5045697;28;20946;-69
2021/08/24 06:45:13;;;;;;;22.67;20.50;;;15.40;99.90;;;;;;5043987;28;20814;-69
2021/08/24 06:47:40;;;;;;;22.03;20.13;;;15.40;99.90;;;;;;5048880;28;20471;-69
2021/08/24 06:50:08;;;;;;;22.87;20.83;;;15.50;99.90;;;;;;5048310;28;20502;-69
2021/08/24 06:52:37;;;;;;;22.43;20.40;;;15.60;99.90;;;;;;5052309;28;20526;-71
2021/08/24 06:55:06;;;;;;;22.60;20.80;;;15.60;99.90;;;;;;5046562;28;20462;-69
2021/08/24 06:57:34;;;;;;;23.67;21.53;;;15.60;99.90;;;;;;5050771;28;21009;-69
2021/08/24 07:00:01;;;;;;;24.73;22.03;;;15.70;99.90;;;;;;5045429;28;20758;-71
2021/08/24 07:02:28;;;;;;;21.57;19.97;;;15.70;99.90;;;;;;5047358;28;20462;-68
2021/08/24 07:04:54;;;;;;;22.03;20.33;;;15.80;99.90;;;;;;5047073;28;20463;-69
2021/08/24 07:07:22;;;;;;;22.57;20.50;;;16.00;99.90;;;;;;5046847;28;20471;-69
2021/08/24 07:09:51;;;;;;;22.17;20.67;;;16.10;99.90;;;;;;5050667;28;20599;-69
2021/08/24 07:12:19;;;;;;;22.10;20.33;;;16.30;99.90;;;;;;5043505;28;20470;-69
2021/08/24 07:14:46;;;;;;;20.23;18.80;;;16.40;99.90;;;;;;5042349;28;20455;-70
2021/08/24 07:17:13;;;;;;;21.03;19.60;;;16.40;99.90;;;;;;5053349;28;20502;-69
2021/08/24 07:19:40;;;;;;;22.00;19.93;;;16.50;99.90;;;;;;5047006;28;20459;-69
2021/08/24 07:22:07;;;;;;;20.90;19.20;;;16.60;99.90;;;;;;5041718;28;20876;-69
2021/08/24 07:24:35;;;;;;;20.50;19.00;;;16.80;99.90;;;;;;5051603;28;20966;-69
2021/08/24 07:27:03;;;;;;;20.97;19.47;;;16.70;99.90;;;;;;5044102;28;20464;-72
2021/08/24 07:29:30;;;;;;;20.97;19.27;;;16.90;99.90;;;;;;5041969;28;20490;-69
2021/08/24 07:31:58;;;;;;;19.70;18.50;;;16.80;99.90;;;;;;5047993;28;20988;-69
2021/08/24 07:34:24;;;;;;;19.30;17.80;;;17.00;99.90;;;;;;5049902;28;20658;-69
2021/08/24 07:36:51;;;;;;;20.23;18.50;;;17.10;99.90;;;;;;5047968;28;20459;-69
2021/08/24 07:39:19;;;;;;;20.80;19.40;;;17.10;99.90;;;;;;5051703;28;20981;-69
2021/08/24 07:41:46;;;;;;;20.43;18.63;;;17.10;99.90;;;;;;5048822;28;20494;-69
2021/08/24 07:44:15;;;;;;;19.80;18.20;;;17.20;99.90;;;;;;5050326;28;20471;-69
2021/08/24 07:46:43;;;;;;;20.27;18.77;;;17.30;99.90;;;;;;5045827;28;20466;-69
2021/08/24 07:49:10;;;;;;;18.17;17.00;;;17.40;99.90;;;;;;5054747;28;20580;-70
2021/08/24 07:51:37;;;;;;;19.83;18.17;;;17.60;99.90;;;;;;5055278;28;20501;-71
2021/08/24 07:54:04;;;;;;;18.23;16.93;;;17.70;99.90;;;;;;5054567;28;20478;-69
2021/08/24 07:56:32;;;;;;;17.80;16.70;;;17.80;99.90;;;;;;5051570;28;20483;-69
2021/08/24 07:58:59;;;;;;;18.37;17.00;;;17.80;99.90;;;;;;5052124;28;20977;-71
2021/08/24 08:01:27;;;;;;;19.10;17.50;;;18.00;99.90;;;;;;5052895;28;20474;-69
2021/08/24 08:03:55;;;;;;;17.63;16.30;;;17.80;99.90;;;;;;5057083;28;20452;-69
2021/08/24 08:06:22;;;;;;;18.27;17.07;;;18.10;99.90;;;;;;5054461;28;20493;-70
2021/08/24 08:08:49;;;;;;;17.23;16.13;;;18.40;99.90;;;;;;5048260;28;20475;-69
2021/08/24 08:11:16;;;;;;;17.90;16.60;;;18.50;99.90;;;;;;5049686;28;20834;-69
2021/08/24 08:13:43;;;;;;;16.67;15.70;;;18.60;99.90;;;;;;5047595;28;20470;-69
2021/08/24 08:16:10;;;;;;;16.73;15.73;;;18.60;99.90;;;;;;5049755;28;20490;-70
2021/08/24 08:18:38;;;;;;;17.57;16.43;;;18.70;99.90;;;;;;5049368;28;20467;-70
2021/08/24 08:21:05;;;;;;;17.60;16.17;;;18.80;99.90;;;;;;5052158;28;20838;-69
2021/08/24 08:23:32;;;;;;;18.20;16.83;;;19.00;99.90;;;;;;5051522;28;20475;-72
2021/08/24 08:25:59;;;;;;;17.57;16.27;;;19.00;99.90;;;;;;5052355;28;20458;-69
2021/08/24 08:28:26;;;;;;;18.10;16.77;;;19.10;99.90;;;;;;5052703;28;20692;-70
2021/08/24 08:30:53;;;;;;;17.03;15.87;;;19.10;99.90;;;;;;5051237;28;20980;-70
2021/08/24 08:33:20;;;;;;;16.17;15.37;;;19.20;99.90;;;;;;5054015;28;20807;-70
2021/08/24 08:35:49;;;;;;;16.03;15.10;;;19.20;99.90;;;;;;5054505;28;20457;-69
2021/08/24 08:38:15;;;;;;;16.10;15.00;;;19.10;99.90;;;;;;5047548;28;20467;-70
2021/08/24 08:40:50;;;;;;;16.23;15.33;;;19.20;99.90;;;;;;5049539;28;20466;-70
2021/08/24 08:43:28;;;;;;;16.60;15.57;;;19.40;99.90;;;;;;5050135;28;20505;-71
2021/08/24 08:46:01;;;;;;;15.53;14.70;;;19.50;99.90;;;;;;5052056;28;20459;-70
2021/08/24 08:48:40;;;;;;;15.60;14.80;;;19.60;99.90;;;;;;5055405;28;20463;-71
2021/08/24 08:51:32;;;;;;;16.13;15.23;;;19.60;99.90;;;;;;5043585;28;20459;-72
2021/08/24 08:54:10;;;;;;;17.10;16.00;;;19.70;99.90;;;;;;5047894;28;20463;-70
2021/08/24 08:56:46;;;;;;;16.40;14.90;;;19.70;99.90;;;;;;5052263;28;20486;-70
2021/08/24 08:59:16;;;;;;;15.60;14.70;;;20.20;99.90;;;;;;5046920;28;20499;-72
2021/08/24 09:01:50;;;;;;;16.23;15.20;;;20.80;99.90;;;;;;5047185;28;20567;-70
2021/08/24 09:04:22;;;;;;;16.60;15.60;;;21.10;99.90;;;;;;5045864;28;21204;-69
2021/08/24 09:06:56;;;;;;;16.43;14.90;;;21.40;99.90;;;;;;5056561;28;20579;-70
2021/08/24 09:09:23;;;;;;;17.23;15.73;;;22.40;99.90;;;;;;5046743;28;20480;-69
2021/08/24 09:11:52;;;;;;;17.40;15.80;;;22.80;99.90;;;;;;5051421;28;20448;-68
2021/08/24 09:14:25;;;;;;;16.43;15.23;;;22.80;99.90;;;;;;5055063;28;20460;-68
2021/08/24 09:16:58;;;;;;;15.70;14.80;;;22.40;99.90;;;;;;5050469;28;20482;-71
2021/08/24 09:19:31;;;;;;;16.60;15.20;;;23.00;99.90;;;;;;5054523;28;20460;-69
2021/08/24 09:21:59;;;;;;;15.40;14.60;;;22.90;99.90;;;;;;5050723;28;20456;-69
2021/08/24 09:24:30;;;;;;;16.53;15.47;;;23.00;99.90;;;;;;5045208;28;21066;-69
2021/08/24 09:27:02;;;;;;;15.90;15.00;;;22.90;99.90;;;;;;5052814;28;20850;-69
2021/08/24 09:29:34;;;;;;;15.97;14.90;;;23.30;99.90;;;;;;5048521;28;20486;-71
2021/08/24 09:32:02;;;;;;;15.50;14.50;;;23.20;99.90;;;;;;5057044;28;20465;-72
2021/08/24 09:34:33;;;;;;;16.00;14.97;;;23.10;99.90;;;;;;5047118;28;21056;-69
2021/08/24 09:37:01;;;;;;;15.40;14.20;;;23.40;99.90;;;;;;5046467;28;20909;-70
2021/08/24 09:39:50;;;;;;;15.43;14.40;;;23.60;99.90;;;;;;5051972;28;20463;-71
2021/08/24 09:42:28;;;;;;;15.10;14.10;;;23.10;99.90;;;;;;5057015;28;20623;-70
2021/08/24 09:44:55;;;;;;;15.30;14.30;;;22.70;99.80;;;;;;5054332;28;20478;-69
2021/08/24 09:47:23;;;;;;;15.57;14.50;;;22.80;99.90;;;;;;5053715;28;20455;-70
2021/08/24 09:49:51;;;;;;;15.40;14.40;;;23.40;98.50;;;;;;5048145;28;20492;-71
2021/08/24 09:52:24;;;;;;;16.10;14.87;;;24.10;98.40;;;;;;5050840;28;20878;-70
2021/08/24 09:54:54;;;;;;;15.40;14.50;;;24.40;96.80;;;;;;5054114;28;20451;-70
2021/08/24 09:57:26;;;;;;;17.00;15.77;;;24.10;96.10;;;;;;5052376;28;20483;-70
2021/08/24 09:59:59;;;;;;;16.07;15.00;;;23.80;96.80;;;;;;5052316;28;20459;-69
2021/08/24 10:02:34;;;;;;;15.73;14.73;;;24.00;97.00;;;;;;5043100;28;20810;-69
2021/08/24 10:05:02;;;;;;;15.77;14.77;;;24.00;97.80;;;;;;5054003;28;21011;-70
2021/08/24 10:07:36;;;;;;;16.53;15.40;;;24.30;96.70;;;;;;5044356;28;20794;-70
2021/08/24 10:10:05;;;;;;;16.30;15.20;;;24.40;96.30;;;;;;5042867;28;20574;-70
2021/08/24 10:12:33;;;;;;;16.23;14.93;;;24.40;98.20;;;;;;5053189;28;20447;-70
2021/08/24 10:15:22;;;;;;;16.60;15.30;;;24.80;97.90;;;;;;5052172;28;20456;-72
2021/08/24 10:18:04;;;;;;;16.40;15.40;;;25.40;98.00;;;;;;5023596;27;20556;-71
2021/08/24 10:20:34;;;;;;;16.27;15.17;;;25.90;96.80;;;;;;5019417;27;20834;-71
2021/08/24 10:23:05;;;;;;;15.60;14.70;;;25.80;96.70;;;;;;5013909;28;20932;-71
2021/08/24 10:25:43;;;;;;;16.40;15.20;;;25.20;95.80;;;;;;5017095;28;20477;-71
2021/08/24 10:28:14;;;;;;;16.37;15.20;;;24.80;96.90;;;;;;5020259;28;20492;-71
2021/08/24 10:30:45;;;;;;;15.40;14.50;;;25.40;96.20;;;;;;5017043;28;20461;-71
2021/08/24 10:33:32;;;;;;;16.33;15.20;;;26.00;95.60;;;;;;5026776;28;20470;-71
2021/08/24 10:36:02;;;;;;;15.83;14.43;;;25.60;94.50;;;;;;5016992;28;21087;-71
2021/08/24 10:38:43;;;;;;;15.47;14.67;;;25.40;94.30;;;;;;5021650;28;20468;-72
2021/08/24 10:41:36;;;;;;;16.30;15.17;;;25.10;93.40;;;;;;5024756;28;20484;-71
2021/08/24 10:44:10;;;;;;;15.63;14.63;;;24.90;93.00;;;;;;5040706;28;20837;-71
2021/08/24 10:46:51;;;;;;;15.60;14.70;;;24.50;92.70;;;;;;5018375;28;20477;-71
2021/08/24 10:49:19;;;;;;;15.47;14.60;;;24.30;92.00;;;;;;5018752;28;20574;-71
2021/08/24 10:51:57;;;;;;;16.07;14.80;;;24.30;92.10;;;;;;5017913;28;20928;-71
2021/08/24 10:54:34;;;;;;;16.43;15.17;;;24.40;92.10;;;;;;5020805;28;20465;-70
2021/08/24 10:57:21;;;;;;;14.93;14.13;;;24.30;93.40;;;;;;5021679;28;21001;-71
2021/08/24 10:59:57;;;;;;;15.63;14.53;;;24.40;93.00;;;;;;5025392;28;20460;-71
2021/08/24 11:02:41;;;;;;;15.03;14.23;;;24.90;93.00;;;;;;5017969;28;21003;-72
2021/08/24 11:08:16;;;;;;;15.50;14.60;;;25.40;91.10;;;;;;5014822;28;20461;-72
2021/08/24 11:10:52;;;;;;;16.10;15.00;;;25.60;91.20;;;;;;5011608;28;20465;-72
2021/08/24 11:13:36;;;;;;;15.40;14.50;;;25.50;92.00;;;;;;5015800;28;20463;-71
2021/08/24 11:16:19;;;;;;;14.43;13.73;;;25.20;90.20;;;;;;5028020;28;20490;-72
2021/08/24 11:18:50;;;;;;;15.10;14.30;;;25.30;90.30;;;;;;5048592;28;21054;-71
2021/08/24 11:21:31;;;;;;;15.70;14.70;;;24.90;91.10;;;;;;5038869;28;20468;-71
2021/08/24 11:24:10;;;;;;;15.80;14.90;;;24.70;90.90;;;;;;5040522;28;20928;-72
2021/08/24 11:26:44;;;;;;;15.77;14.87;;;24.60;90.70;;;;;;5037993;28;20815;-71
2021/08/24 11:29:27;;;;;;;16.57;15.57;;;25.10;90.90;;;;;;5023404;27;20468;-72
2021/08/24 11:32:00;;;;;;;15.53;14.50;;;25.90;90.50;;;;;;5016674;28;20457;-73
2021/08/24 11:34:32;;;;;;;15.67;14.77;;;25.70;90.20;;;;;;5011781;28;21034;-71
2021/08/24 11:37:05;;;;;;;15.40;14.60;;;26.40;88.70;;;;;;5027704;28;20488;-74
2021/08/24 11:39:41;;;;;;;15.83;14.87;;;26.80;88.70;;;;;;5021961;28;20461;-72
2021/08/24 11:42:09;;;;;;;16.20;15.10;;;27.00;88.00;;;;;;5022824;28;20457;-71
2021/08/24 11:44:46;;;;;;;15.77;14.90;;;26.60;83.60;;;;;;5017159;28;20982;-71
2021/08/24 11:47:15;;;;;;;15.60;14.70;;;26.40;84.40;;;;;;5024092;28;20472;-72
2021/08/24 11:49:46;;;;;;;15.73;14.83;;;26.20;85.00;;;;;;5031624;28;20461;-71
2021/08/24 11:52:23;;;;;;;16.83;15.67;;;25.70;84.70;;;;;;5027066;28;20457;-72
2021/08/24 11:54:59;;;;;;;15.90;15.00;;;26.00;84.80;;;;;;5022084;28;20460;-71
2021/08/24 11:57:32;;;;;;;15.67;14.77;;;26.40;85.10;;;;;;5022292;28;20620;-72
2021/08/24 11:59:58;;;;;;;16.30;15.17;;;26.70;86.00;;;;;;5019703;28;20469;-73
2021/08/24 12:02:28;;;;;;;16.50;15.57;;;27.20;86.30;;;;;;5018610;28;20456;-72
2021/08/24 12:04:56;;;;;;;15.40;14.30;;;26.60;80.80;;;;;;5024201;28;20524;-72
2021/08/24 12:07:33;;;;;;;15.77;14.77;;;27.30;81.50;;;;;;5016246;28;20544;-74
2021/08/24 12:10:01;;;;;;;15.87;14.80;;;27.50;82.50;;;;;;5018396;28;20456;-73
2021/08/24 12:12:47;;;;;;;16.00;15.10;;;27.70;76.70;;;;;;5027137;28;20465;-71
2021/08/24 12:15:29;;;;;;;15.67;14.67;;;27.60;79.60;;;;;;5023800;28;20472;-72
2021/08/24 12:18:11;;;;;;;15.40;14.50;;;27.60;77.60;;;;;;5025561;28;21092;-71
2021/08/24 12:20:40;;;;;;;16.27;15.27;;;27.50;76.80;;;;;;5021952;28;20457;-72
2021/08/24 12:23:13;;;;;;;16.20;15.20;;;27.40;76.40;;;;;;5027552;28;21010;-73
2021/08/24 12:25:42;;;;;;;15.17;14.27;;;27.30;75.40;;;;;;5019361;28;20472;-72
2021/08/24 12:28:36;;;;;;;15.93;14.93;;;27.40;73.30;;;;;;5028416;28;20969;-71
2021/08/24 12:31:36;;;;;;;15.20;14.10;;;27.30;71.70;;;;;;5023125;28;20455;-71
2021/08/24 12:34:49;;;;;;;15.77;14.77;;;27.60;73.10;;;;;;5029027;28;20808;-74
2021/08/24 12:37:52;;;;;;;15.17;14.23;;;27.40;70.90;;;;;;5021879;28;20483;-72
2021/08/24 12:40:48;;;;;;;16.13;15.00;;;27.00;71.40;;;;;;5021659;28;20479;-73
2021/08/24 12:43:48;;;;;;;16.60;15.60;;;26.60;73.00;;;;;;5024552;28;20465;-71
2021/08/24 12:46:30;;;;;;;15.83;14.23;;;26.90;73.50;;;;;;5017538;28;20509;-72
2021/08/24 12:49:31;;;;;;;14.07;13.17;;;27.30;73.90;;;;;;5018231;28;20543;-73
2021/08/24 12:52:05;;;;;;;16.50;15.40;;;27.60;71.10;;;;;;5019528;28;20461;-71